Terminal Aerodrome Forecast
Issued by NWS Springfield, MO

Home | Current Version | Previous Version | Text Only | Print | Product List | Glossary On
Versions: 1 2 3 4 5 6 7 8 9 10 11 12 13 14 15 16 17 18 19 20 21 22 23 24 25 26 27 28 29
000
FTUS43 KSGF 282300
TAFSGF
TAF
KSGF 282320Z 2900/2924 03007KT P6SM VCSH SCT025 BKN100
      TEMPO 2900/2902 BKN025
     FM290300 13006KT P6SM SCT025 SCT100
     FM290800 17008KT P6SM OVC100 WS020/22035KT
     FM291100 18008KT 6SM BR VCSH SCT025 OVC100
      TEMPO 2911/2915 BKN025
     FM291600 19010KT P6SM VCSH SCT025 OVC050=

USA.gov is the U.S. government's official web portal to all federal, state and local government web resources and services.